Prof. Eribelto Manoel Reino State Airport

SBSR · São Paulo, Brasil

METAR pasados SBSR · Prof. Eribelto Manoel Reino State Airport

A continuación puedes ver los METAR de los últimos días. Selecciona un año para ver los METAR más antiguos, desde el año 2007 en adelante.

29 de mayo de 2024

Hora Código Tiempo Temp. Visibilidad Cielo nuboso Viento METAR/SPECI
15:00
V
23 °C 10 km+ - 250° 250° 6 kt METAR SBSR 291800Z 25006KT CAVOK 23/09 Q1020
14:00
V
23 °C 10 km+ - 280° 280° 5 kt METAR SBSR 291700Z 28005KT CAVOK 23/10 Q1021
13:00
V
21 °C 10 km+ - 300° 300° 3 kt METAR SBSR 291600Z 30003KT CAVOK 21/10 Q1022
12:00
V
19 °C 10 km+ - 340° 340° 3 kt METAR SBSR 291500Z 34003KT CAVOK 19/09 Q1022
11:00
V
17 °C 10 km+ - 290° 290° 2 kt METAR SBSR 291400Z 29002KT CAVOK 17/08 Q1023
10:00
V
16 °C 10 km+ - 190° 190° 4 kt METAR SBSR 291300Z 19004KT CAVOK 16/08 Q1024
09:00
V
15 °C 10 km+ - 080° 080° 2 kt METAR SBSR 291200Z 08002KT CAVOK 15/08 Q1024
08:00
V
12 °C 10 km+ - 160° 160° 4 kt METAR SBSR 291100Z 16004KT CAVOK 12/08 Q1023
07:00
V
11 °C 10 km+ - 240° 240° 2 kt METAR SBSR 291000Z 24002KT CAVOK 11/09 Q1022
06:00
V
11 °C 10 km+ - 210° 210° 5 kt METAR SBSR 290900Z 21005KT 9999 SCT035 11/09 Q1021
05:00
V
11 °C 10 km+ - 240° 240° 5 kt METAR SBSR 290800Z 24005KT 9999 SCT035 11/09 Q1021
04:00
V
11 °C 10 km+ - 240° 240° 6 kt METAR SBSR 290700Z 24006KT CAVOK 11/10 Q1022
03:00
V
11 °C 10 km+ - 240° 240° 6 kt METAR SBSR 290600Z 24006KT CAVOK 11/10 Q1022
02:00
V
12 °C 10 km+ - 240° 240° 7 kt METAR SBSR 290500Z 24007KT CAVOK 12/11 Q1022
01:00
V
13 °C 10 km+ - 270° 270° 6 kt METAR SBSR 290400Z 27006KT CAVOK 13/11 Q1022
00:00
V
12 °C 10 km+ - 270° 270° 2 kt METAR SBSR 290300Z 27002KT CAVOK 12/11 Q1022

28 de mayo de 2024

Hora Código Tiempo Temp. Visibilidad Cielo nuboso Viento METAR/SPECI
23:00
V
13 °C 10 km+ - 270° 270° 6 kt METAR SBSR 290200Z 27006KT CAVOK 13/11 Q1023
22:00
V
13 °C 10 km+ - 270° 270° 5 kt METAR SBSR 290100Z 27005KT CAVOK 13/11 Q1022
21:00
V
14 °C 10 km+ - 270° 270° 3 kt METAR SBSR 290000Z 27003KT CAVOK 14/11 Q1022
20:00
V
14 °C 10 km+ - 270° 270° 4 kt METAR SBSR 282300Z 27004KT CAVOK 14/12 Q1022
19:00
M
15 °C 10 km+ 1.500 ft 240° 240° 7 kt METAR SBSR 282200Z 24007KT 9999 BKN015 15/12 Q1022
18:00
M
15 °C 10 km+ 1.600 ft 250° 250° 9 kt METAR SBSR 282100Z 25009KT 9999 BKN016 15/12 Q1022
15:00
I
17 °C 10 km+ 900 ft 240° 240° 7 kt METAR SBSR 281800Z 24007KT 9999 BKN009 OVC070 17/12 Q1022
14:00
I
16 °C 10 km+ 900 ft 270° 270° 4 kt METAR SBSR 281700Z 27004KT 9999 BKN009 OVC070 16/13 Q1022
13:00
M
16 °C 10 km+ 1.800 ft 270° 270° 4 kt METAR SBSR 281600Z 27004KT 9999 FEW010 BKN018 16/12 Q1022
12:00
M
16 °C 10 km+ 1.000 ft 250° 250° 8 kt METAR SBSR 281500Z 25008KT 9999 BKN010 OVC070 16/12 Q1023
11:00
I
16 °C 10 km+ 700 ft 250° 250° 7 kt METAR SBSR 281400Z 25007KT 9999 BKN007 OVC070 16/12 Q1023
10:00
I
16 °C 10 km+ 700 ft 260° 260° 5 kt METAR SBSR 281300Z 26005KT 9999 BKN007 BKN070 16/13 Q1024
09:00
I
15 °C 10 km+ 700 ft 280° 280° 5 kt METAR SBSR 281200Z 28005KT 9999 BKN007 OVC070 15/13 Q1023
08:00
I
15 °C 7 km 700 ft 300° 300° 3 kt METAR SBSR 281100Z 30003KT 7000 OVC007 15/14 Q1023
07:00
I
16 °C 8 km 700 ft 260° 260° 4 kt METAR SBSR 281000Z 26004KT 8000 BKN007 OVC070 16/14 Q1022
06:00
M
16 °C 10 km+ 2.000 ft 270° 270° 4 kt METAR SBSR 280900Z 27004KT 9999 BKN020 OVC070 16/15 Q1021
05:00
V
16 °C 10 km+ 7.000 ft 270° 270° 5 kt METAR SBSR 280800Z 27005KT 9999 SCT015 BKN070 16/15 Q1020
04:00
M
16 °C 10 km+ 2.000 ft 240° 240° 9 kt METAR SBSR 280700Z 24009KT 9999 -DZ BKN020 OVC070 16/16 Q1020
03:00
M
17 °C 10 km+ 2.000 ft 270° 270° 10 kt METAR SBSR 280600Z 27010KT 9999 -DZ BKN020 OVC070 17/16 Q1020
02:00
M
18 °C 10 km+ 2.000 ft 230° 230° 12 kt METAR SBSR 280500Z 23012KT 9999 BKN020 OVC070 18/17 Q1020
01:00
M
19 °C 10 km+ 2.500 ft 240° 240° 7 kt METAR SBSR 280400Z 24007KT 9999 BKN025 OVC070 19/18 Q1020
00:00
M
19 °C 10 km+ 3.000 ft 260° 260° 8 kt METAR SBSR 280300Z 26008KT 9999 BKN030 OVC070 19/18 Q1020

27 de mayo de 2024

Hora Código Tiempo Temp. Visibilidad Cielo nuboso Viento METAR/SPECI
23:00
M
20 °C 10 km+ 3.000 ft 250° 250° 10 kt METAR SBSR 280200Z 25010KT 9999 BKN030 OVC070 20/18 Q1021
22:00
V
20 °C 10 km+ - 260° 260° 8 kt METAR SBSR 280100Z 26008KT 9999 SCT015 20/18 Q1021
21:00
V
20 °C 10 km+ - 230° 230° 8 kt METAR SBSR 280000Z 23008KT CAVOK 20/19 Q1020
20:00
V
20 °C 10 km+ - 240° 240° 8 kt METAR SBSR 272300Z 24008KT CAVOK 20/19 Q1020
19:00
V
21 °C 10 km+ - 250° 250° 10 kt METAR SBSR 272200Z 25010KT CAVOK 21/19 Q1019
18:00
V
22 °C 10 km+ - 240° 240° 10 kt METAR SBSR 272100Z 24010KT CAVOK 22/19 Q1018
17:00
V
24 °C 10 km+ - 270° 270° 8 kt METAR SBSR 272000Z 27008KT CAVOK 24/19 Q1018
16:00
V
27 °C 10 km+ - 270° 270° 4 kt METAR SBSR 271900Z 27004KT 9999 SCT040 27/17 Q1018
15:00
V
27 °C 10 km+ - 330° 330° 3 kt METAR SBSR 271800Z 33003KT CAVOK 27/17 Q1018
14:00
V
26 °C 10 km+ - 330° 330° 5 kt METAR SBSR 271700Z 33005KT CAVOK 26/18 Q1019
13:00
V
24 °C 10 km+ - 360° 360° 4 kt METAR SBSR 271600Z 36004KT CAVOK 24/17 Q1019
12:00
M
23 °C 9 km 1.000 ft 360° 360° 5 kt METAR SBSR 271500Z 36005KT 9000 BKN010 23/18 Q1020
11:00
M
20 °C 5 km 1.000 ft 030° 030° 2 kt METAR SBSR 271400Z 03002KT 5000 BR BKN010 OVC070 20/18 Q1021
10:00
M
20 °C 6 km 1.000 ft 030° 030° 2 kt METAR SBSR 271300Z 03002KT 6000 BKN010 OVC070 20/18 Q1021
09:00
I
19 °C 5 km 600 ft 060° 060° 2 kt METAR SBSR 271200Z 06002KT 5000 BR BKN006 BKN070 19/18 Q1021
08:00
I
18 °C 5 km 600 ft 360° 360° 0 kt METAR SBSR 271100Z 00000KT 5000 BR BKN006 BKN070 18/18 Q1020
07:00
I
18 °C 3 km 500 ft 360° 360° 0 kt METAR SBSR 271000Z 00000KT 3000 BR BKN005 BKN070 18/17 Q1020
06:00
V
18 °C 8 km - 360° 360° 0 kt METAR SBSR 270900Z 00000KT 8000 FEW015 SCT070 18/17 Q1019
05:00
V
17 °C 10 km+ - 360° 360° 0 kt METAR SBSR 270800Z 00000KT 9999 FEW020 17/17 Q1018
04:00
V
18 °C 10 km+ - 360° 360° 0 kt METAR SBSR 270700Z 00000KT 9999 FEW015 18/17 Q1018
03:00
V
18 °C 10 km+ - 150° 150° 3 kt METAR SBSR 270600Z 15003KT 9999 FEW010 18/17 Q1019
Cambiar esta información